Aviation Digital Data Service (ADDS)

Output produced by METARs form (1803 UTC 19 October 2017)
found at http://www.aviationweather.gov/adds/metars/
 
SMJP 191800Z 08009KT 9999 FEW025TCU SCT035 34/20 Q1009 NOSIG
TAF SMJP 191600Z 1918/2018 12010KT 9999 SCT020 TX34/1918Z TN23/2010Z 
     TEMPO 1918/1922 VRB12G22KT 4000 TSRA FEW015CB SCT018 
     BECMG 1922/2000 09005KT CAVOK 
     BECMG 2008/2010 00000KT 0800 FG BKN001 
     FM201200 09004KT 9999 SCT020